Time,TemperatureF,DewpointF,PressureIn,WindDirection,WindDirectionDegrees,WindSpeedMPH,WindSpeedGustMPH,Humidity,HourlyPrecipIn,Conditions,Clouds,dailyrainin,SolarRadiationWatts/m^2,SoftwareType,DateUTC
2013-03-22 00:02:00,25.0,11.0,-100.00,WSW,254,4.0,9.0,54,0.00,,,0.12,0.000000,,2013-03-22 06:02:00,
2013-03-22 00:13:00,25.0,11.0,-100.00,WSW,254,4.0,9.0,54,0.00,,,0.12,0.000000,,2013-03-22 06:13:00,
2013-03-22 00:22:00,25.0,11.0,-100.00,WSW,254,4.0,9.0,54,0.00,,,0.12,0.000000,,2013-03-22 06:22:00,
2013-03-22 00:32:00,25.0,11.0,-100.00,WSW,254,4.0,9.0,54,0.00,,,0.12,0.000000,,2013-03-22 06:32:00,
2013-03-22 01:02:00,29.0,6.0,-100.00,South,172,9.0,22.0,37,0.00,,,0.12,0.000000,,2013-03-22 07:02:00,
2013-03-22 01:12:00,29.0,6.0,-100.00,South,172,9.0,22.0,37,0.00,,,0.12,0.000000,,2013-03-22 07:12:00,
2013-03-22 01:22:00,29.0,6.0,-100.00,South,172,9.0,22.0,37,0.00,,,0.12,0.000000,,2013-03-22 07:22:00,
2013-03-22 01:32:00,29.0,6.0,-100.00,South,172,9.0,22.0,37,0.00,,,0.12,0.000000,,2013-03-22 07:32:00,
2013-03-22 02:03:00,28.0,6.0,-100.00,WNW,296,8.0,21.0,38,0.00,,,0.12,0.000000,,2013-03-22 08:03:00,
2013-03-22 02:13:00,28.0,6.0,-100.00,WNW,296,8.0,21.0,38,0.00,,,0.12,0.000000,,2013-03-22 08:13:00,
2013-03-22 02:22:00,28.0,6.0,-100.00,WNW,296,8.0,21.0,38,0.00,,,0.12,0.000000,,2013-03-22 08:22:00,
2013-03-22 02:32:00,28.0,6.0,-100.00,WNW,296,8.0,21.0,38,0.00,,,0.12,0.000000,,2013-03-22 08:32:00,
2013-03-22 03:02:00,23.0,6.0,-100.00,SSE,162,4.0,12.0,48,0.00,,,0.12,0.000000,,2013-03-22 09:02:00,
2013-03-22 03:12:00,23.0,6.0,-100.00,SSE,162,4.0,12.0,48,0.00,,,0.12,0.000000,,2013-03-22 09:12:00,
2013-03-22 03:22:00,23.0,6.0,-100.00,SSE,162,4.0,12.0,48,0.00,,,0.12,0.000000,,2013-03-22 09:22:00,
2013-03-22 03:32:00,23.0,6.0,-100.00,SSE,162,4.0,12.0,48,0.00,,,0.12,0.000000,,2013-03-22 09:32:00,
2013-03-22 04:03:00,23.0,7.0,-100.00,NW,305,3.0,9.0,50,0.00,,,0.12,0.000000,,2013-03-22 10:03:00,
2013-03-22 04:12:00,23.0,7.0,-100.00,NW,305,3.0,9.0,50,0.00,,,0.12,0.000000,,2013-03-22 10:12:00,
2013-03-22 04:22:00,23.0,7.0,-100.00,NW,305,3.0,9.0,50,0.00,,,0.12,0.000000,,2013-03-22 10:22:00,
2013-03-22 04:32:00,23.0,7.0,-100.00,NW,305,3.0,9.0,50,0.00,,,0.12,0.000000,,2013-03-22 10:32:00,
2013-03-22 05:03:00,25.0,4.0,-100.00,NNE,22,8.0,13.0,39,0.00,,,0.12,0.000000,,2013-03-22 11:03:00,
2013-03-22 05:12:00,25.0,4.0,-100.00,NNE,22,8.0,13.0,39,0.00,,,0.12,0.000000,,2013-03-22 11:12:00,
2013-03-22 05:22:00,25.0,4.0,-100.00,NNE,22,8.0,13.0,39,0.00,,,0.12,0.000000,,2013-03-22 11:22:00,
2013-03-22 05:33:00,25.0,4.0,-100.00,NNE,22,8.0,13.0,39,0.00,,,0.12,0.000000,,2013-03-22 11:33:00,
2013-03-22 06:02:00,18.0,4.0,-100.00,West,269,1.0,15.0,54,0.00,,,0.12,0.000000,,2013-03-22 12:02:00,
2013-03-22 06:12:00,18.0,4.0,-100.00,West,269,1.0,15.0,54,0.00,,,0.12,0.000000,,2013-03-22 12:12:00,
2013-03-22 06:22:00,18.0,4.0,-100.00,West,269,1.0,15.0,54,0.00,,,0.12,0.000000,,2013-03-22 12:22:00,
2013-03-22 06:32:00,18.0,4.0,-100.00,West,269,1.0,15.0,54,0.00,,,0.12,0.000000,,2013-03-22 12:32:00,
2013-03-22 07:02:00,16.0,6.0,-100.00,NW,323,2.0,5.0,63,0.00,,,0.12,0.000000,,2013-03-22 13:02:00,
2013-03-22 07:12:00,16.0,6.0,-100.00,NW,323,2.0,5.0,63,0.00,,,0.12,0.000000,,2013-03-22 13:12:00,
2013-03-22 07:22:00,16.0,6.0,-100.00,NW,323,2.0,5.0,63,0.00,,,0.12,0.000000,,2013-03-22 13:22:00,
2013-03-22 07:32:00,16.0,6.0,-100.00,NW,323,2.0,5.0,63,0.00,,,0.12,0.000000,,2013-03-22 13:32:00,
2013-03-22 08:02:00,16.0,6.0,-100.00,North,351,3.0,7.0,65,0.00,,,0.12,9.000000,,2013-03-22 14:02:00,
2013-03-22 08:12:00,16.0,6.0,-100.00,North,351,3.0,7.0,65,0.00,,,0.12,9.000000,,2013-03-22 14:12:00,
2013-03-22 08:22:00,16.0,6.0,-100.00,North,351,3.0,7.0,65,0.00,,,0.12,9.000000,,2013-03-22 14:22:00,
2013-03-22 08:32:00,16.0,6.0,-100.00,North,351,3.0,7.0,65,0.00,,,0.12,9.000000,,2013-03-22 14:32:00,
2013-03-22 09:03:00,22.0,9.0,-100.00,NNW,335,4.0,8.0,56,0.00,,,0.12,91.000000,,2013-03-22 15:03:00,
2013-03-22 09:12:00,22.0,9.0,-100.00,NNW,335,4.0,8.0,56,0.00,,,0.12,91.000000,,2013-03-22 15:12:00,
2013-03-22 09:22:00,22.0,9.0,-100.00,NNW,335,4.0,8.0,56,0.00,,,0.12,91.000000,,2013-03-22 15:22:00,
2013-03-22 09:32:00,22.0,9.0,-100.00,NNW,335,4.0,8.0,56,0.00,,,0.12,91.000000,,2013-03-22 15:32:00,
2013-03-22 10:03:00,28.0,7.0,-100.00,South,181,6.0,10.0,40,0.00,,,0.12,223.000000,,2013-03-22 16:03:00,
2013-03-22 10:13:00,28.0,7.0,-100.00,South,181,6.0,10.0,40,0.00,,,0.12,223.000000,,2013-03-22 16:13:00,
2013-03-22 10:23:00,28.0,7.0,-100.00,South,181,6.0,10.0,40,0.00,,,0.12,223.000000,,2013-03-22 16:23:00,
2013-03-22 10:32:00,28.0,7.0,-100.00,South,181,6.0,10.0,40,0.00,,,0.12,223.000000,,2013-03-22 16:32:00,
2013-03-22 11:03:00,33.0,11.0,-100.00,SE,142,10.0,14.0,39,0.00,,,0.06,540.000000,,2013-03-22 17:03:00,
2013-03-22 11:12:00,33.0,11.0,-100.00,SE,142,10.0,14.0,39,0.00,,,0.06,540.000000,,2013-03-22 17:12:00,
2013-03-22 11:23:00,33.0,11.0,-100.00,SE,142,10.0,14.0,39,0.00,,,0.06,540.000000,,2013-03-22 17:23:00,
2013-03-22 11:32:00,33.0,11.0,-100.00,SE,142,10.0,14.0,39,0.00,,,0.06,540.000000,,2013-03-22 17:32:00,
2013-03-22 12:02:00,38.0,9.0,-100.00,SE,128,10.0,19.0,30,0.00,,,0.04,776.000000,,2013-03-22 18:02:00,
2013-03-22 12:12:00,38.0,9.0,-100.00,SE,128,10.0,19.0,30,0.00,,,0.04,776.000000,,2013-03-22 18:12:00,
2013-03-22 12:22:00,38.0,9.0,-100.00,SE,128,10.0,19.0,30,0.00,,,0.04,776.000000,,2013-03-22 18:22:00,
2013-03-22 12:33:00,38.0,9.0,-100.00,SE,128,10.0,19.0,30,0.00,,,0.04,776.000000,,2013-03-22 18:33:00,
2013-03-22 13:02:00,36.0,10.0,-100.00,SSE,159,14.0,23.0,34,0.00,,,0.04,694.000000,,2013-03-22 19:02:00,
2013-03-22 13:12:00,36.0,10.0,-100.00,SSE,159,14.0,23.0,34,0.00,,,0.04,694.000000,,2013-03-22 19:12:00,
2013-03-22 13:22:00,36.0,10.0,-100.00,SSE,159,14.0,23.0,34,0.00,,,0.04,694.000000,,2013-03-22 19:22:00,
2013-03-22 13:32:00,36.0,10.0,-100.00,SSE,159,14.0,23.0,34,0.00,,,0.04,694.000000,,2013-03-22 19:32:00,
2013-03-22 14:02:00,38.0,13.0,-100.00,South,171,16.0,24.0,35,0.00,,,0.04,475.000000,,2013-03-22 20:02:00,
2013-03-22 14:12:00,38.0,13.0,-100.00,South,171,16.0,24.0,35,0.00,,,0.04,475.000000,,2013-03-22 20:12:00,
2013-03-22 14:22:00,38.0,13.0,-100.00,South,171,16.0,24.0,35,0.00,,,0.04,475.000000,,2013-03-22 20:22:00,
2013-03-22 14:32:00,38.0,13.0,-100.00,South,171,16.0,24.0,35,0.00,,,0.04,475.000000,,2013-03-22 20:32:00,
2013-03-22 15:03:00,38.0,8.0,-100.00,ENE,69,7.0,23.0,28,0.00,,,0.01,260.000000,,2013-03-22 21:03:00,
2013-03-22 15:12:00,38.0,8.0,-100.00,ENE,69,7.0,23.0,28,0.00,,,0.01,260.000000,,2013-03-22 21:12:00,
2013-03-22 15:22:00,38.0,8.0,-100.00,ENE,69,7.0,23.0,28,0.00,,,0.01,260.000000,,2013-03-22 21:22:00,
2013-03-22 15:33:00,38.0,8.0,-100.00,ENE,69,7.0,23.0,28,0.00,,,0.01,260.000000,,2013-03-22 21:33:00,
2013-03-22 16:03:00,35.0,15.0,-100.00,NW,326,15.0,22.0,44,0.00,,,0.01,273.000000,,2013-03-22 22:03:00,
2013-03-22 16:12:00,35.0,15.0,-100.00,NW,326,15.0,22.0,44,0.00,,,0.01,273.000000,,2013-03-22 22:12:00,
2013-03-22 16:23:00,35.0,15.0,-100.00,NW,326,15.0,22.0,44,0.00,,,0.01,273.000000,,2013-03-22 22:23:00,
2013-03-22 16:32:00,35.0,15.0,-100.00,NW,326,15.0,22.0,44,0.00,,,0.01,273.000000,,2013-03-22 22:32:00,
2013-03-22 17:02:00,33.0,15.0,-100.00,NNW,346,12.0,23.0,48,0.00,,,0.00,126.000000,,2013-03-22 23:02:00,
2013-03-22 17:12:00,33.0,15.0,-100.00,NNW,346,12.0,23.0,48,0.00,,,0.00,126.000000,,2013-03-22 23:12:00,
2013-03-22 17:22:00,33.0,15.0,-100.00,NNW,346,12.0,23.0,48,0.00,,,0.00,126.000000,,2013-03-22 23:22:00,
2013-03-22 17:32:00,33.0,15.0,-100.00,NNW,346,12.0,23.0,48,0.00,,,0.00,126.000000,,2013-03-22 23:32:00,
2013-03-22 18:02:00,37.0,9.0,-100.00,West,260,6.0,13.0,31,0.00,,,0.00,87.000000,,2013-03-23 00:02:00,
2013-03-22 18:12:00,37.0,9.0,-100.00,West,260,6.0,13.0,31,0.00,,,0.00,87.000000,,2013-03-23 00:12:00,
2013-03-22 18:23:00,37.0,9.0,-100.00,West,260,6.0,13.0,31,0.00,,,0.00,87.000000,,2013-03-23 00:23:00,
2013-03-22 18:32:00,37.0,9.0,-100.00,West,260,6.0,13.0,31,0.00,,,0.00,87.000000,,2013-03-23 00:32:00,
2013-03-22 19:03:00,36.0,8.0,-100.00,NW,313,12.0,23.0,31,0.00,,,0.00,82.000000,,2013-03-23 01:03:00,
2013-03-22 19:12:00,36.0,8.0,-100.00,NW,313,12.0,23.0,31,0.00,,,0.00,82.000000,,2013-03-23 01:12:00,
2013-03-22 19:22:00,36.0,8.0,-100.00,NW,313,12.0,23.0,31,0.00,,,0.00,82.000000,,2013-03-23 01:22:00,
2013-03-22 19:32:00,36.0,8.0,-100.00,NW,313,12.0,23.0,31,0.00,,,0.00,82.000000,,2013-03-23 01:32:00,
2013-03-22 20:02:00,34.0,10.0,-100.00,NW,314,11.0,23.0,36,0.00,,,0.00,15.000000,,2013-03-23 02:02:00,
2013-03-22 20:12:00,34.0,10.0,-100.00,NW,314,11.0,23.0,36,0.00,,,0.00,15.000000,,2013-03-23 02:12:00,
2013-03-22 20:22:00,34.0,10.0,-100.00,NW,314,11.0,23.0,36,0.00,,,0.00,15.000000,,2013-03-23 02:22:00,
2013-03-22 20:32:00,34.0,10.0,-100.00,NW,314,11.0,23.0,36,0.00,,,0.00,15.000000,,2013-03-23 02:32:00,
2013-03-22 21:02:00,31.0,15.0,-100.00,NNW,329,10.0,15.0,50,0.00,,,0.00,0.000000,,2013-03-23 03:02:00,
2013-03-22 21:12:00,31.0,15.0,-100.00,NNW,329,10.0,15.0,50,0.00,,,0.00,0.000000,,2013-03-23 03:12:00,
2013-03-22 21:22:00,31.0,15.0,-100.00,NNW,329,10.0,15.0,50,0.00,,,0.00,0.000000,,2013-03-23 03:22:00,
2013-03-22 21:33:00,31.0,15.0,-100.00,NNW,329,10.0,15.0,50,0.00,,,0.00,0.000000,,2013-03-23 03:33:00,
2013-03-22 22:02:00,28.0,16.0,-100.00,North,5,6.0,17.0,59,0.00,,,0.00,0.000000,,2013-03-23 04:02:00,
2013-03-22 22:12:00,28.0,16.0,-100.00,North,5,6.0,17.0,59,0.00,,,0.00,0.000000,,2013-03-23 04:12:00,
2013-03-22 22:23:00,28.0,16.0,-100.00,North,5,6.0,17.0,59,0.00,,,0.00,0.000000,,2013-03-23 04:23:00,
2013-03-22 22:32:00,28.0,16.0,-100.00,North,5,6.0,17.0,59,0.00,,,0.00,0.000000,,2013-03-23 04:32:00,
2013-03-22 23:02:00,29.0,7.0,-100.00,WNW,301,17.0,30.0,39,0.00,,,0.00,0.000000,,2013-03-23 05:02:00,
2013-03-22 23:12:00,29.0,7.0,-100.00,WNW,301,17.0,30.0,39,0.00,,,0.00,0.000000,,2013-03-23 05:12:00,
2013-03-22 23:22:00,29.0,7.0,-100.00,WNW,301,17.0,30.0,39,0.00,,,0.00,0.000000,,2013-03-23 05:22:00,
2013-03-22 23:32:00,29.0,7.0,-100.00,WNW,301,17.0,30.0,39,0.00,,,0.00,0.000000,,2013-03-23 05:32:00,